Time;durP1;ratioP1;P1;durP2;ratioP2;P2;SDS_P1;SDS_P2;PMS_P1;PMS_P2;Temp;Humidity;BMP_temperature;BMP_pressure;BME280_temperature;BME280_humidity;BME280_pressure;Samples;Min_cycle;Max_cycle;Signal;HPM_P1;HPM_P2
2022/09/30 00:01:06;;;;;;;20.25;14.15;;;;;;;8.91;100.00;95332.25;4972948;29;20054;-85
2022/09/30 00:06:10;;;;;;;22.05;14.38;;;;;;;8.99;100.00;95327.91;5172052;23;20506;-85
2022/09/30 00:08:38;;;;;;;19.45;13.13;;;;;;;9.01;100.00;95331.88;4974740;28;20051;-85
2022/09/30 00:11:08;;;;;;;18.85;12.73;;;;;;;9.04;100.00;95330.41;4969970;28;20048;-84
2022/09/30 00:13:37;;;;;;;22.13;13.15;;;;;;;9.05;100.00;95338.22;4955559;29;20048;-85
2022/09/30 00:21:36;;;;;;;19.05;12.30;;;;;;;9.05;100.00;95351.00;5579357;23;20103;-86
2022/09/30 00:24:47;;;;;;;42.72;15.15;;;;;;;9.03;100.00;95350.53;4971285;28;20965;-84
2022/09/30 00:27:17;;;;;;;17.73;12.15;;;;;;;9.05;100.00;95351.81;4973078;29;20051;-84
2022/09/30 00:29:44;;;;;;;16.83;12.45;;;;;;;9.07;100.00;95356.91;4972076;28;20047;-85
2022/09/30 00:32:11;;;;;;;20.40;12.55;;;;;;;9.07;100.00;95356.91;4973810;29;20051;-84
2022/09/30 00:34:38;;;;;;;22.50;14.38;;;;;;;9.06;100.00;95350.66;4974736;29;20043;-86
2022/09/30 00:37:07;;;;;;;23.33;13.18;;;;;;;9.06;100.00;95345.25;4975318;29;20047;-85
2022/09/30 00:39:35;;;;;;;24.58;13.77;;;;;;;9.05;100.00;95349.09;4974870;28;20086;-84
2022/09/30 00:42:05;;;;;;;27.65;13.73;;;;;;;9.06;100.00;95353.38;4972351;29;20086;-83
2022/09/30 00:45:04;;;;;;;21.55;13.88;;;;;;;9.02;100.00;95360.59;5037451;23;20044;-82
2022/09/30 00:47:40;;;;;;;23.00;12.38;;;;;;;9.03;100.00;95356.78;4942070;29;20062;-86
2022/09/30 00:50:17;;;;;;;24.30;13.95;;;;;;;9.02;100.00;95360.59;4973617;28;20058;-84
2022/09/30 00:52:50;;;;;;;21.83;14.73;;;;;;;8.99;100.00;95358.56;5009951;23;20259;-85
2022/09/30 00:55:27;;;;;;;20.38;12.82;;;;;;;8.98;100.00;95359.69;4977217;28;20079;-85
2022/09/30 00:57:55;;;;;;;20.42;13.75;;;;;;;8.96;100.00;95361.94;4971336;28;20074;-82
2022/09/30 01:00:22;;;;;;;23.00;15.48;;;;;;;8.90;100.00;95363.25;4971840;29;20047;-86
2022/09/30 01:02:49;;;;;;;22.92;14.13;;;;;;;8.91;100.00;95364.06;4973495;28;20066;-86
2022/09/30 01:05:16;;;;;;;19.80;13.63;;;;;;;8.94;100.00;95369.63;4954514;29;20490;-85
2022/09/30 01:07:58;;;;;;;24.75;13.63;;;;;;;8.96;100.00;95361.94;4953295;29;20055;-85
2022/09/30 01:10:47;;;;;;;23.15;14.50;;;;;;;9.00;100.00;95372.94;4953240;29;20063;-87
2022/09/30 01:13:18;;;;;;;23.38;15.05;;;;;;;9.01;100.00;95375.31;4954929;29;20048;-87
2022/09/30 01:15:58;;;;;;;22.05;14.35;;;;;;;9.03;100.00;95383.94;4955185;29;20055;-86
2022/09/30 01:18:34;;;;;;;23.33;14.90;;;;;;;9.04;100.00;95385.53;4959636;29;20051;-84
2022/09/30 01:21:20;;;;;;;21.67;14.63;;;;;;;9.07;100.00;95386.75;4973839;28;20114;-86
2022/09/30 01:24:17;;;;;;;22.00;14.85;;;;;;;9.07;100.00;95378.63;4974632;28;20058;-86
2022/09/30 01:27:17;;;;;;;23.02;15.70;;;;;;;9.05;100.00;95376.25;4972472;29;20043;-85
2022/09/30 01:30:09;;;;;;;21.65;15.18;;;;;;;9.06;100.00;95372.41;4969006;29;20047;-87
2022/09/30 01:33:04;;;;;;;22.92;15.68;;;;;;;9.10;100.00;95375.25;5044078;23;20057;-86
2022/09/30 01:35:41;;;;;;;27.67;18.02;;;;;;;9.06;100.00;95377.81;4955299;29;20055;-85
2022/09/30 01:38:16;;;;;;;27.88;17.15;;;;;;;9.06;100.00;95388.69;4955580;29;20114;-84
2022/09/30 01:40:47;;;;;;;25.08;15.82;;;;;;;9.07;100.00;95386.75;4970669;29;20047;-86
2022/09/30 01:43:24;;;;;;;23.50;16.13;;;;;;;9.06;100.00;95394.13;4972942;29;20047;-86
2022/09/30 01:45:59;;;;;;;28.15;17.52;;;;;;;9.04;100.00;95396.38;4953281;29;20055;-87
2022/09/30 01:48:37;;;;;;;26.20;17.50;;;;;;;9.04;100.00;95399.09;4957624;28;20047;-85
2022/09/30 01:51:07;;;;;;;27.20;16.67;;;;;;;9.03;100.00;95402.94;4972113;29;20059;-85
2022/09/30 01:53:41;;;;;;;22.83;15.75;;;;;;;9.01;100.00;95404.38;4972823;23;20170;-85
2022/09/30 01:56:14;;;;;;;24.88;16.55;;;;;;;8.96;100.00;95405.38;4934941;29;20048;-85
2022/09/30 01:58:45;;;;;;;25.95;17.55;;;;;;;8.94;99.98;95410.34;4940388;29;20050;-86
2022/09/30 02:01:21;;;;;;;27.00;17.38;;;;;;;8.93;99.96;95418.81;4951771;29;20047;-85
2022/09/30 02:03:55;;;;;;;28.42;19.23;;;;;;;8.88;100.00;95419.81;4950910;29;20472;-85
2022/09/30 02:06:26;;;;;;;24.65;16.48;;;;;;;8.89;100.00;95410.56;4944110;29;20055;-85
2022/09/30 02:08:57;;;;;;;24.50;15.93;;;;;;;8.89;100.00;95410.56;4963217;23;20048;-84
2022/09/30 02:11:28;;;;;;;22.88;15.10;;;;;;;8.89;100.00;95410.56;4934840;29;20093;-84
2022/09/30 02:14:02;;;;;;;23.00;14.90;;;;;;;8.91;100.00;95411.00;5118217;23;20063;-85
2022/09/30 02:34:49;;;;;;;22.35;14.73;;;;;;;8.83;100.00;95417.31;5550401;23;20070;-86
2022/09/30 02:37:20;;;;;;;28.83;17.75;;;;;;;8.67;100.00;95413.56;4957654;29;20047;-85
2022/09/30 02:39:51;;;;;;;26.48;16.60;;;;;;;8.77;100.00;95407.72;4975730;29;20055;-84
2022/09/30 02:42:22;;;;;;;24.00;16.40;;;;;;;8.80;100.00;95413.31;4975795;29;20085;-85
2022/09/30 02:44:51;;;;;;;30.52;16.70;;;;;;;8.85;100.00;95407.69;4975749;29;20043;-86
2022/09/30 02:47:26;;;;;;;28.05;15.73;;;;;;;8.92;100.00;95409.88;4958594;29;20043;-86
2022/09/30 02:50:01;;;;;;;25.38;16.40;;;;;;;8.94;100.00;95407.63;4974271;29;20450;-85
2022/09/30 02:52:36;;;;;;;27.77;18.02;;;;;;;8.98;100.00;95402.31;4958264;29;20056;-85
2022/09/30 02:55:16;;;;;;;28.85;17.92;;;;;;;9.01;100.00;95404.38;4974948;29;20074;-85
2022/09/30 02:57:56;;;;;;;29.38;17.42;;;;;;;9.02;100.00;95411.41;4974287;28;20067;-85
2022/09/30 03:00:23;;;;;;;36.00;19.88;;;;;;;9.01;100.00;95405.19;4974761;28;20051;-85
2022/09/30 03:02:56;;;;;;;35.47;19.80;;;;;;;9.01;100.00;95407.91;4975314;28;20047;-85
2022/09/30 03:05:25;;;;;;;36.22;20.70;;;;;;;8.98;100.00;95402.31;4958198;28;20105;-85
2022/09/30 03:07:52;;;;;;;29.05;17.92;;;;;;;8.94;100.00;95402.22;5031736;23;20043;-85
2022/09/30 03:10:19;;;;;;;29.98;19.95;;;;;;;8.92;100.00;95401.72;4975637;28;20044;-85
2022/09/30 03:13:01;;;;;;;25.50;17.40;;;;;;;8.94;100.00;95402.22;4975099;29;20098;-85
2022/09/30 03:15:42;;;;;;;32.50;19.30;;;;;;;8.92;100.00;95409.88;4974503;28;20047;-85
2022/09/30 03:18:27;;;;;;;39.63;22.75;;;;;;;8.78;100.00;95402.00;4977627;28;20051;-85
2022/09/30 03:21:08;;;;;;;27.65;16.92;;;;;;;8.78;100.00;95410.13;4979927;28;20035;-85
2022/09/30 03:24:12;;;;;;;34.28;20.20;;;;;;;8.83;100.00;95417.31;4978959;28;20062;-85
2022/09/30 03:26:46;;;;;;;26.00;17.75;;;;;;;8.85;100.00;95415.03;4960343;28;20111;-83
2022/09/30 03:29:20;;;;;;;33.95;19.65;;;;;;;8.87;100.00;95407.34;4968844;23;20123;-81
2022/09/30 03:39:41;;;;;;;28.48;17.02;;;;;;;8.85;99.80;95442.19;4974474;28;20057;-86
2022/09/30 03:44:53;;;;;;;30.25;17.58;;;;;;;8.75;99.43;95443.34;5388146;23;20058;-84
2022/09/30 03:47:22;;;;;;;27.45;16.00;;;;;;;8.71;99.03;95447.84;4995427;28;20067;-86
2022/09/30 03:49:53;;;;;;;27.05;16.80;;;;;;;8.69;99.28;95452.03;4982847;28;20058;-86
2022/09/30 03:52:21;;;;;;;24.33;16.73;;;;;;;8.68;99.46;95453.16;4983944;28;20046;-86
2022/09/30 04:00:00;;;;;;;32.80;19.27;;;;;;;8.60;100.00;95461.00;5402501;23;20044;-86
2022/09/30 04:02:28;;;;;;;28.20;17.15;;;;;;;8.66;100.00;95452.66;4977212;28;20053;-85
2022/09/30 04:04:59;;;;;;;28.15;16.73;;;;;;;8.71;100.00;95464.13;4976340;28;20075;-86
2022/09/30 04:07:25;;;;;;;31.60;17.05;;;;;;;8.77;100.00;95462.03;4977104;29;20043;-85
2022/09/30 04:09:52;;;;;;;25.50;15.45;;;;;;;8.81;100.00;95469.19;4975151;29;20051;-85
2022/09/30 04:12:19;;;;;;;29.92;17.65;;;;;;;8.84;100.00;95475.91;4975441;29;20075;-85
2022/09/30 04:14:46;;;;;;;27.75;17.90;;;;;;;8.79;100.00;95484.22;4957616;29;20051;-85
2022/09/30 04:17:14;;;;;;;31.08;17.35;;;;;;;8.74;100.00;95484.41;4973935;29;20096;-85
2022/09/30 04:19:41;;;;;;;35.05;16.77;;;;;;;8.72;100.00;95481.22;4957076;29;20047;-87
2022/09/30 04:22:09;;;;;;;35.33;16.55;;;;;;;8.73;100.00;95490.97;4974931;28;20074;-87
2022/09/30 04:24:38;;;;;;;28.20;16.02;;;;;;;8.72;100.00;95483.91;4976099;28;20041;-86
2022/09/30 04:27:04;;;;;;;25.65;15.80;;;;;;;8.72;100.00;95492.06;4973868;28;20118;-85
2022/09/30 04:29:31;;;;;;;27.50;15.52;;;;;;;8.71;100.00;95485.06;4975692;28;20051;-86
2022/09/30 04:31:59;;;;;;;30.67;15.93;;;;;;;8.71;100.00;95482.34;4963242;28;20042;-83
2022/09/30 04:34:27;;;;;;;25.90;15.20;;;;;;;8.68;99.90;95483.81;4996802;28;20054;-82
2022/09/30 04:36:55;;;;;;;25.30;15.48;;;;;;;8.70;100.00;95486.19;5023663;23;20062;-87
2022/09/30 04:39:21;;;;;;;24.73;14.57;;;;;;;8.72;100.00;95492.06;4956909;29;20035;-85
2022/09/30 05:05:02;;;;;;;20.45;13.93;;;;;;;8.62;100.00;95521.19;5178106;23;20075;-83
2022/09/30 05:07:30;;;;;;;19.75;13.40;;;;;;;8.63;100.00;95527.41;4936318;29;20040;-83
2022/09/30 05:09:57;;;;;;;21.88;14.43;;;;;;;8.66;99.78;95531.38;4936595;29;20031;-85
2022/09/30 05:12:25;;;;;;;20.85;13.65;;;;;;;8.68;99.99;95526.44;4947577;29;20110;-84
2022/09/30 05:14:51;;;;;;;23.02;14.77;;;;;;;8.67;99.77;95525.63;4953274;29;20122;-82
2022/09/30 05:17:18;;;;;;;20.45;14.27;;;;;;;8.67;99.81;95522.13;4934286;29;20078;-82
2022/09/30 05:19:45;;;;;;;21.27;15.43;;;;;;;8.70;99.70;95521.47;4935928;29;20058;-83
2022/09/30 05:22:13;;;;;;;23.90;15.73;;;;;;;8.68;99.59;95529.94;4954389;29;20067;-84
2022/09/30 05:24:40;;;;;;;21.95;14.52;;;;;;;8.66;99.56;95532.16;4951015;29;20120;-86
2022/09/30 05:34:54;;;;;;;23.80;14.90;;;;;;;8.73;99.85;95548.75;5099652;23;20043;-87
2022/09/30 05:37:22;;;;;;;20.90;14.52;;;;;;;8.73;100.00;95542.53;4904311;29;20059;-87
2022/09/30 05:39:50;;;;;;;20.38;14.18;;;;;;;8.74;99.88;95544.13;4921276;29;20134;-87
2022/09/30 05:42:17;;;;;;;21.13;14.77;;;;;;;8.78;100.00;95550.50;4888391;29;20048;-87
2022/09/30 05:44:44;;;;;;;22.20;14.60;;;;;;;8.78;100.00;95555.94;4919361;29;20121;-84
2022/09/30 05:47:11;;;;;;;22.33;15.15;;;;;;;8.79;100.00;95552.09;4896277;29;20057;-84
2022/09/30 05:49:38;;;;;;;24.75;14.63;;;;;;;8.82;100.00;95562.28;4921639;29;20052;-83
2022/09/30 05:52:06;;;;;;;24.40;15.43;;;;;;;8.84;100.00;95566.28;4925734;23;20120;-83
2022/09/30 05:54:34;;;;;;;24.05;15.35;;;;;;;8.88;100.00;95571.84;4900014;29;20053;-87
2022/09/30 05:57:01;;;;;;;27.48;16.13;;;;;;;8.91;100.00;95570.41;4901609;29;20076;-85
2022/09/30 05:59:28;;;;;;;26.73;16.10;;;;;;;8.93;100.00;95576.28;4897434;29;20053;-85
2022/09/30 06:01:54;;;;;;;27.02;17.77;;;;;;;8.92;100.00;95572.78;4897946;29;20056;-85
2022/09/30 06:04:21;;;;;;;25.15;16.80;;;;;;;8.92;100.00;95572.78;4902425;29;20051;-84
2022/09/30 06:06:48;;;;;;;28.67;18.48;;;;;;;8.97;100.00;95572.59;4886197;29;20061;-85
2022/09/30 06:09:14;;;;;;;25.85;17.95;;;;;;;9.01;100.00;95576.25;4901851;29;20097;-84
2022/09/30 06:11:43;;;;;;;29.30;18.17;;;;;;;9.05;100.00;95576.41;4932523;23;20123;-83
2022/09/30 06:14:10;;;;;;;27.48;17.63;;;;;;;9.10;100.00;95581.66;4938299;29;20111;-84
2022/09/30 06:16:36;;;;;;;27.40;18.35;;;;;;;9.11;100.00;95584.03;4922048;29;20051;-85
2022/09/30 06:19:03;;;;;;;33.22;19.35;;;;;;;9.08;100.00;95581.16;4922072;29;20135;-85
2022/09/30 06:21:29;;;;;;;26.35;17.25;;;;;;;9.12;100.00;95572.03;4923574;29;20095;-85
2022/09/30 06:23:56;;;;;;;28.77;17.92;;;;;;;9.07;100.00;95574.94;4939947;29;20070;-85
2022/09/30 06:26:23;;;;;;;24.10;15.90;;;;;;;9.16;100.00;95583.06;4938878;29;20051;-85
2022/09/30 06:28:52;;;;;;;27.67;17.40;;;;;;;9.20;100.00;95588.66;4938660;29;20090;-82
2022/09/30 06:31:19;;;;;;;19.70;13.50;;;;;;;9.18;99.89;95596.31;4923309;29;20040;-86
2022/09/30 06:33:45;;;;;;;18.95;13.43;;;;;;;9.10;98.75;95595.25;4941634;29;20055;-84
2022/09/30 06:36:12;;;;;;;20.83;13.88;;;;;;;9.03;98.49;95593.03;4947230;23;20044;-85
2022/09/30 06:38:39;;;;;;;20.27;14.02;;;;;;;9.03;98.29;95595.75;4941708;29;20039;-83
2022/09/30 06:43:41;;;;;;;23.85;16.73;;;;;;;9.15;98.37;95595.84;5462296;23;20033;-87
2022/09/30 06:48:56;;;;;;;21.55;13.00;;;;;;;9.24;98.81;95605.84;4943510;29;20040;-85
2022/09/30 06:51:25;;;;;;;21.85;14.02;;;;;;;9.19;98.17;95614.19;4928311;29;20059;-86
2022/09/30 06:53:53;;;;;;;17.63;12.57;;;;;;;9.20;98.22;95615.81;5005508;23;20032;-83
2022/09/30 06:56:20;;;;;;;26.33;14.52;;;;;;;9.20;97.75;95616.59;5045154;23;20047;-84
2022/09/30 06:58:47;;;;;;;18.77;13.13;;;;;;;9.20;97.42;95621.25;4943792;29;20059;-85
2022/09/30 07:01:15;;;;;;;22.00;12.52;;;;;;;9.18;96.90;95618.03;4943024;29;20059;-84
2022/09/30 07:03:45;;;;;;;17.13;11.73;;;;;;;9.25;97.25;95621.06;4960025;29;20031;-86
2022/09/30 07:06:13;;;;;;;26.48;13.25;;;;;;;9.31;97.48;95630.63;4959458;29;20055;-84
2022/09/30 07:08:40;;;;;;;16.55;11.50;;;;;;;9.26;97.25;95634.31;4960846;28;20040;-85
2022/09/30 07:11:13;;;;;;;29.52;13.65;;;;;;;9.39;97.58;95635.19;4959467;29;20118;-82
2022/09/30 07:24:02;;;;;;;16.10;11.02;;;;;;;9.64;96.83;95647.06;4921039;29;20024;-86
2022/09/30 07:36:41;;;;;;;17.42;10.52;;;;;;;9.85;95.42;95649.78;5807697;23;20047;-84
2022/09/30 07:41:39;;;;;;;76.57;24.00;;;;;;;9.91;95.25;95651.19;5791114;23;20052;-81
2022/09/30 07:44:09;;;;;;;17.80;10.05;;;;;;;9.95;94.94;95654.84;4978625;28;20043;-82
2022/09/30 07:46:39;;;;;;;14.93;9.50;;;;;;;9.97;95.15;95655.34;4978547;28;20051;-82
2022/09/30 08:25:18;;;;;;;14.27;9.55;;;;;;;10.67;92.89;95685.53;4988102;23;20058;-88
2022/09/30 08:30:20;;;;;;;74.88;16.58;;;;;;;10.73;92.44;95689.63;6013232;23;20083;-83
2022/09/30 08:32:47;;;;;;;17.05;10.05;;;;;;;10.73;92.94;95686.09;4924771;29;20060;-85
2022/09/30 08:35:14;;;;;;;18.42;11.25;;;;;;;10.75;92.86;95683.84;4926759;29;20091;-78
2022/09/30 08:37:41;;;;;;;16.20;10.00;;;;;;;10.82;92.09;95684.09;4924517;29;20058;-83
2022/09/30 08:42:51;;;;;;;16.40;10.40;;;;;;;11.13;94.33;95689.88;4980355;23;20583;-82
2022/09/30 08:45:30;;;;;;;16.58;11.60;;;;;;;11.26;94.12;95687.16;4914752;29;20499;-81
2022/09/30 08:48:08;;;;;;;15.82;10.60;;;;;;;11.38;93.55;95696.16;4938076;29;20058;-85
2022/09/30 08:50:48;;;;;;;13.10;9.30;;;;;;;11.28;90.87;95699.31;4950184;29;20048;-84
2022/09/30 08:53:23;;;;;;;12.93;8.48;;;;;;;11.43;91.08;95706.84;4945221;29;20144;-85
2022/09/30 08:55:51;;;;;;;13.23;8.60;;;;;;;11.54;91.16;95709.91;4950727;29;20047;-81
2022/09/30 08:58:28;;;;;;;11.45;8.23;;;;;;;11.43;88.15;95708.75;4928320;29;20047;-82
2022/09/30 09:01:00;;;;;;;14.45;7.97;;;;;;;11.15;83.93;95719.50;4926787;29;20052;-81
2022/09/30 09:03:32;;;;;;;13.82;7.93;;;;;;;11.40;85.26;95720.34;4948211;29;20063;-84
2022/09/30 09:06:06;;;;;;;;;;;;;;;11.45;88.80;95717.41;4930579;29;20052;-81
2022/09/30 09:09:03;;;;;;;12.60;8.57;;;;;;;11.60;88.73;95716.75;4943527;29;19922;-85
2022/09/30 09:11:53;;;;;;;9.98;6.53;;;;;;;11.58;86.56;95724.44;4950648;29;20052;-84
2022/09/30 09:22:18;;;;;;;11.65;5.90;;;;;;;11.39;84.34;95729.66;5133127;23;20151;-81
2022/09/30 09:24:47;;;;;;;10.48;5.32;;;;;;;11.52;83.65;95736.72;4972920;28;20119;-82
2022/09/30 09:27:20;;;;;;;93.38;27.85;;;;;;;11.73;84.90;95733.91;5354281;23;20034;-83
2022/09/30 09:32:26;;;;;;;6.85;3.55;;;;;;;11.84;80.75;95742.44;5003563;23;20061;-87
2022/09/30 09:45:27;;;;;;;12.18;5.35;;;;;;;11.67;81.20;95757.88;5038006;23;20093;-81
2022/09/30 09:47:56;;;;;;;7.97;4.43;;;;;;;11.69;80.85;95758.34;4958987;29;20061;-78
2022/09/30 09:50:34;;;;;;;10.88;5.18;;;;;;;11.82;81.90;95753.72;4958588;29;20059;-78
2022/09/30 09:53:15;;;;;;;11.63;4.75;;;;;;;11.83;82.21;95754.50;4957266;28;20103;-87
2022/09/30 09:55:45;;;;;;;11.13;5.00;;;;;;;11.84;81.03;95756.09;4962714;29;20288;-83
2022/09/30 09:58:17;;;;;;;11.10;5.60;;;;;;;11.76;81.68;95750.38;4966792;29;20051;-85
2022/09/30 10:03:47;;;;;;;10.23;5.47;;;;;;;11.96;82.87;95753.38;4926371;29;20052;-82
2022/09/30 10:06:17;;;;;;;6.28;4.50;;;;;;;12.01;81.56;95750.44;4922411;29;20075;-83
2022/09/30 10:08:56;;;;;;;9.50;5.07;;;;;;;12.07;80.82;95754.50;4929060;29;20083;-84
2022/09/30 10:11:26;;;;;;;9.02;5.30;;;;;;;12.16;81.27;95747.00;4949187;29;20075;-82
2022/09/30 10:13:58;;;;;;;8.07;5.07;;;;;;;12.06;80.50;95750.19;4941398;29;20048;-84
2022/09/30 10:16:31;;;;;;;12.43;5.45;;;;;;;12.16;80.45;95757.94;4948176;29;20077;-85
2022/09/30 10:18:59;;;;;;;9.73;5.10;;;;;;;12.32;79.62;95755.28;4950629;29;20058;-87
2022/09/30 10:21:27;;;;;;;9.82;5.28;;;;;;;12.26;80.09;95757.44;4934368;29;20103;-85
2022/09/30 10:23:54;;;;;;;8.80;5.18;;;;;;;12.38;80.88;95753.13;4951872;29;20040;-89
2022/09/30 10:26:23;;;;;;;9.93;5.20;;;;;;;12.53;81.86;95750.47;4952586;29;20050;-88
2022/09/30 10:28:51;;;;;;;14.75;5.90;;;;;;;12.64;82.24;95745.31;4935256;29;20034;-89
2022/09/30 10:31:24;;;;;;;7.60;4.85;;;;;;;12.71;81.13;95740.06;4920843;29;20051;-88
2022/09/30 10:33:58;;;;;;;7.25;4.82;;;;;;;12.50;75.57;95751.16;4953589;29;20065;-87
2022/09/30 10:36:32;;;;;;;125.47;26.52;;;;;;;12.40;76.09;95748.91;4926381;23;20044;-87
2022/09/30 10:39:02;;;;;;;8.07;5.15;;;;;;;12.46;77.22;95754.91;4936316;29;20055;-87
2022/09/30 10:41:31;;;;;;;9.93;5.30;;;;;;;12.58;77.61;95751.34;4962229;23;20044;-87
2022/09/30 10:44:01;;;;;;;12.68;6.97;;;;;;;12.50;75.17;95744.91;4930745;29;20069;-88
2022/09/30 10:46:32;;;;;;;8.23;5.38;;;;;;;12.54;75.91;95756.72;4929760;29;20072;-87
2022/09/30 10:49:01;;;;;;;8.50;4.95;;;;;;;12.70;77.73;95757.59;4933524;28;20072;-89
2022/09/30 10:51:32;;;;;;;7.78;4.78;;;;;;;12.76;77.88;95774.53;4935327;28;20056;-88
2022/09/30 10:54:00;;;;;;;11.30;5.75;;;;;;;12.83;78.44;95773.94;4936073;28;20048;-88
2022/09/30 10:59:32;;;;;;;32.30;9.27;;;;;;;12.62;75.59;95755.00;4933030;28;20052;-87
2022/09/30 11:04:51;;;;;;;9.40;5.30;;;;;;;12.72;77.28;95766.22;4931246;23;20071;-81
2022/09/30 11:07:27;;;;;;;10.48;5.38;;;;;;;12.72;77.06;95768.16;5069627;23;20056;-79
2022/09/30 11:10:00;;;;;;;8.07;5.60;;;;;;;12.72;77.29;95774.44;4925865;29;20078;-80
2022/09/30 11:12:30;;;;;;;;;;;;;;;12.72;78.11;95771.69;4929733;29;20055;-86
2022/09/30 11:15:06;;;;;;;10.25;5.97;;;;;;;12.88;79.42;95766.28;4927816;29;20295;-83
2022/09/30 11:17:42;;;;;;;9.70;6.53;;;;;;;13.09;80.09;95768.84;4925473;29;20044;-84
2022/09/30 11:20:19;;;;;;;8.55;5.75;;;;;;;13.30;78.97;95769.44;4928045;29;20054;-83
2022/09/30 11:22:53;;;;;;;13.50;6.10;;;;;;;13.37;76.71;95781.75;4920839;29;20115;-83
2022/09/30 11:25:33;;;;;;;9.20;5.45;;;;;;;13.40;74.59;95794.72;4924191;29;20111;-83
2022/09/30 11:28:30;;;;;;;17.52;6.97;;;;;;;13.30;74.82;95809.66;4946357;23;20051;-84
2022/09/30 11:31:06;;;;;;;45.90;10.27;;;;;;;13.02;74.82;95806.91;5698658;23;20050;-83
2022/09/30 11:33:47;;;;;;;8.90;5.13;;;;;;;12.98;75.62;95798.59;4922562;29;20811;-86
2022/09/30 11:36:26;;;;;;;10.60;5.40;;;;;;;12.99;75.90;95793.94;4932327;28;20081;-84
2022/09/30 11:39:06;;;;;;;11.63;5.00;;;;;;;12.99;75.78;95788.47;4923392;29;20052;-80
2022/09/30 11:41:37;;;;;;;9.45;4.70;;;;;;;13.03;75.65;95790.16;4906662;29;20120;-79
2022/09/30 11:44:16;;;;;;;11.23;4.22;;;;;;;13.14;75.53;95790.47;4923886;29;20052;-86
2022/09/30 11:47:07;;;;;;;6.55;3.78;;;;;;;13.08;74.07;95786.38;4896439;29;20127;-83
2022/09/30 11:49:48;;;;;;;7.78;3.78;;;;;;;13.02;72.74;95787.78;4925277;29;20048;-86
2022/09/30 11:52:25;;;;;;;6.13;3.72;;;;;;;12.87;71.87;95781.09;4930367;29;20059;-85
2022/09/30 11:55:10;;;;;;;8.52;3.85;;;;;;;12.90;73.06;95774.16;4921899;29;20052;-79
2022/09/30 11:57:43;;;;;;;11.30;4.57;;;;;;;12.88;74.44;95770.97;4920306;29;20130;-80
2022/09/30 12:02:38;;;;;;;6.35;3.67;;;;;;;12.97;76.16;95779.81;4978388;23;20107;-86
2022/09/30 12:05:10;;;;;;;8.18;3.75;;;;;;;12.98;75.89;95792.34;4968656;28;20051;-84
2022/09/30 12:07:44;;;;;;;7.85;4.28;;;;;;;12.90;75.23;95790.56;4929894;29;20052;-83
2022/09/30 12:10:21;;;;;;;8.65;4.68;;;;;;;12.88;75.55;95782.69;4946668;29;20044;-80
2022/09/30 12:12:53;;;;;;;8.00;3.78;;;;;;;12.98;76.11;95787.66;4942622;29;20055;-81
2022/09/30 12:15:23;;;;;;;8.10;4.00;;;;;;;13.03;77.16;95784.69;4924587;29;20107;-81
2022/09/30 12:17:54;;;;;;;5.43;3.03;;;;;;;13.12;75.20;95775.56;4926422;29;20055;-83
2022/09/30 12:20:26;;;;;;;5.22;2.92;;;;;;;13.20;73.96;95783.59;4948035;29;20147;-89
2022/09/30 12:23:00;;;;;;;5.32;2.88;;;;;;;13.25;70.26;95796.25;4954990;29;20043;-86
2022/09/30 12:25:32;;;;;;;5.53;2.75;;;;;;;13.31;71.54;95795.66;5061411;23;20062;-87
2022/09/30 12:30:15;;;;;;;4.43;2.70;;;;;;;13.28;73.60;95795.56;5044583;23;20052;-89
2022/09/30 12:31:02;;;;;;;47.47;10.35;;;;;;;13.20;70.35;95783.59;4980843;23;20039;-88
2022/09/30 12:33:47;;;;;;;3.42;2.15;;;;;;;13.36;72.88;95780.13;4917440;29;20056;-87
2022/09/30 12:36:31;;;;;;;6.72;3.28;;;;;;;13.52;75.53;95792.72;5000500;23;20043;-82
2022/09/30 12:39:12;;;;;;;;;;;;;;;13.55;76.04;95783.00;4940109;23;20074;-83
2022/09/30 12:41:58;;;;;;;13.05;4.43;;;;;;;13.51;75.27;95788.38;4944623;29;19922;-80
2022/09/30 12:45:00;;;;;;;6.95;2.90;;;;;;;13.50;73.18;95789.53;4957527;29;20071;-78
2022/09/30 12:47:44;;;;;;;6.13;3.20;;;;;;;13.46;73.13;95790.56;4948915;29;20075;-82
2022/09/30 12:50:20;;;;;;;10.57;2.88;;;;;;;13.34;70.60;95790.63;4960393;29;20054;-82
2022/09/30 12:52:47;;;;;;;9.07;2.55;;;;;;;13.35;69.31;95789.50;4961584;29;20768;-80
2022/09/30 12:55:29;;;;;;;5.47;2.13;;;;;;;13.34;70.85;95787.91;4963464;28;20059;-83
2022/09/30 12:58:01;;;;;;;5.45;2.20;;;;;;;13.23;69.69;95793.88;5000384;23;20104;-86
2022/09/30 13:00:33;;;;;;;6.38;2.28;;;;;;;13.18;70.63;95791.34;4932129;29;20108;-88
2022/09/30 13:03:06;;;;;;;5.78;1.85;;;;;;;13.23;71.37;95788.41;4930475;29;20139;-84
2022/09/30 13:05:58;;;;;;;;;;;;;;;13.27;72.35;95786.56;4926450;29;20049;-82
2022/09/30 13:08:44;;;;;;;3.40;1.85;;;;;;;13.27;72.69;95797.50;4909502;29;19991;-85
2022/09/30 13:11:32;;;;;;;5.80;1.95;;;;;;;13.28;71.84;95790.09;4910370;29;20132;-84
2022/09/30 13:14:13;;;;;;;3.03;1.80;;;;;;;13.28;71.31;95785.41;4911947;29;20112;-85
2022/09/30 13:17:22;;;;;;;5.90;3.10;;;;;;;13.31;70.41;95783.91;4908974;29;20049;-83
2022/09/30 13:19:51;;;;;;;5.85;2.15;;;;;;;13.34;71.41;95787.91;4907743;29;20091;-84
2022/09/30 13:25:54;;;;;;;6.80;2.40;;;;;;;13.38;71.93;95783.34;4966797;23;20058;-83
2022/09/30 13:31:17;;;;;;;8.45;2.58;;;;;;;13.25;70.43;95786.09;5273757;23;20042;-85
2022/09/30 13:33:47;;;;;;;7.40;2.80;;;;;;;13.37;70.78;95789.94;4937110;29;20027;-89
2022/09/30 13:54:39;;;;;;;4.22;2.30;;;;;;;13.38;73.06;95775.13;5795502;23;20067;-85
2022/09/30 13:57:15;;;;;;;3.65;2.10;;;;;;;13.43;73.52;95763.94;5203883;23;20055;-86
2022/09/30 13:59:54;;;;;;;4.70;2.13;;;;;;;13.38;72.15;95762.25;4932924;29;20059;-84
2022/09/30 14:03:02;;;;;;;5.32;2.55;;;;;;;13.34;70.76;95776.97;4954423;29;20210;-88
2022/09/30 14:08:20;;;;;;;10.07;3.00;;;;;;;13.45;72.03;95778.03;5107631;23;20055;-84
2022/09/30 14:11:21;;;;;;;11.05;2.80;;;;;;;13.43;72.31;95788.53;4942241;28;20082;-86
2022/09/30 14:14:05;;;;;;;12.00;3.10;;;;;;;13.48;72.15;95778.16;5368651;23;20037;-89
2022/09/30 14:17:14;;;;;;;13.07;3.60;;;;;;;13.56;73.63;95779.13;4927684;28;20040;-85
2022/09/30 14:19:56;;;;;;;11.70;3.33;;;;;;;13.56;72.47;95790.84;4897114;29;20044;-79
2022/09/30 14:22:26;;;;;;;8.47;2.63;;;;;;;13.56;71.27;95795.53;4905295;29;20057;-82
2022/09/30 14:24:52;;;;;;;6.68;2.35;;;;;;;13.49;70.92;95792.63;4930775;29;20044;-84
2022/09/30 14:27:33;;;;;;;20.73;3.95;;;;;;;13.44;70.71;95796.41;4926790;29;20075;-81
2022/09/30 14:30:06;;;;;;;5.13;2.10;;;;;;;13.40;69.97;95783.75;4938226;29;20048;-85
2022/09/30 14:32:41;;;;;;;13.60;3.22;;;;;;;13.49;70.96;95789.88;4941290;29;20067;-87
2022/09/30 14:35:12;;;;;;;23.80;5.68;;;;;;;13.57;70.11;95788.91;5563445;23;20043;-84
2022/09/30 14:37:43;;;;;;;9.25;2.80;;;;;;;13.65;67.71;95785.22;4947490;29;20106;-81
2022/09/30 14:40:12;;;;;;;5.78;2.42;;;;;;;13.83;68.13;95789.22;4946120;29;20174;-82
2022/09/30 14:42:43;;;;;;;5.25;2.30;;;;;;;13.98;68.69;95790.34;4957888;29;20059;-83
2022/09/30 14:45:15;;;;;;;7.85;2.97;;;;;;;14.21;68.67;95796.00;4965203;29;20062;-83
2022/09/30 14:47:47;;;;;;;6.85;2.83;;;;;;;14.46;68.05;95804.00;4966554;29;20069;-83
2022/09/30 14:50:21;;;;;;;11.07;3.65;;;;;;;14.61;66.29;95805.94;4967378;28;20110;-87
2022/09/30 14:52:59;;;;;;;6.88;2.55;;;;;;;14.53;66.35;95798.75;4974506;29;20087;-87
2022/09/30 14:55:30;;;;;;;10.38;3.35;;;;;;;14.38;65.55;95803.06;4973371;29;20109;-86
2022/09/30 14:58:21;;;;;;;7.38;2.53;;;;;;;14.45;65.10;95807.91;4969681;28;20073;-83
2022/09/30 15:00:56;;;;;;;6.63;2.75;;;;;;;14.45;66.09;95800.47;4966480;28;20105;-87
2022/09/30 15:03:24;;;;;;;25.58;5.85;;;;;;;14.36;67.41;95817.13;4983581;23;20070;-88
2022/09/30 15:05:51;;;;;;;8.35;3.10;;;;;;;14.26;67.48;95811.38;4945679;28;20048;-81
2022/09/30 15:08:21;;;;;;;14.70;4.30;;;;;;;14.20;67.62;95813.59;4937162;28;20451;-81
2022/09/30 15:10:50;;;;;;;9.63;3.42;;;;;;;14.22;69.30;95821.44;4938917;28;20044;-78
2022/09/30 15:13:22;;;;;;;9.30;3.55;;;;;;;14.23;67.75;95821.09;4937768;28;20059;-83
2022/09/30 15:15:49;;;;;;;8.50;3.35;;;;;;;14.43;69.20;95821.16;4941616;28;20143;-82